createdAt,value
2022-11-24T00:02:04.065Z,2.40
2022-11-24T00:04:30.429Z,11.45
2022-11-24T00:06:56.750Z,4.20
2022-11-24T00:09:23.030Z,2.00
2022-11-24T00:11:49.291Z,3.63
2022-11-24T00:14:15.590Z,5.35
2022-11-24T00:16:41.946Z,5.57
2022-11-24T00:19:09.200Z,3.72
2022-11-24T00:21:36.054Z,2.30
2022-11-24T00:24:02.569Z,2.58
2022-11-24T00:26:30.167Z,5.50
2022-11-24T00:28:57.558Z,2.95
2022-11-24T00:31:25.175Z,5.20
2022-11-24T00:33:52.902Z,3.70
2022-11-24T00:36:20.316Z,4.03
2022-11-24T00:38:46.879Z,2.25
2022-11-24T00:41:13.523Z,3.55
2022-11-24T00:43:39.876Z,5.85
2022-11-24T00:46:06.261Z,5.32
2022-11-24T00:48:32.626Z,8.95
2022-11-24T00:50:59.870Z,5.55
2022-11-24T00:53:26.213Z,6.43
2022-11-24T00:55:52.740Z,6.13
2022-11-24T00:58:19.253Z,5.00
2022-11-24T01:00:45.532Z,10.27
2022-11-24T01:03:12.475Z,11.00
2022-11-24T01:05:39.194Z,8.07
2022-11-24T01:08:06.072Z,5.93
2022-11-24T01:10:32.684Z,7.65
2022-11-24T01:12:59.434Z,11.05
2022-11-24T01:15:25.974Z,5.47
2022-11-24T01:17:52.430Z,6.13
2022-11-24T01:20:18.707Z,9.95
2022-11-24T01:22:44.977Z,10.25
2022-11-24T01:25:11.724Z,12.68
2022-11-24T01:27:38.489Z,7.05
2022-11-24T01:30:05.402Z,12.20
2022-11-24T01:32:33.190Z,7.95
2022-11-24T01:34:59.833Z,9.20
2022-11-24T01:37:26.088Z,6.63
2022-11-24T01:39:52.360Z,8.45
2022-11-24T01:42:18.651Z,9.15
2022-11-24T01:44:44.932Z,13.38
2022-11-24T01:47:14.085Z,6.30
2022-11-24T01:50:06.737Z,9.80
2022-11-24T01:52:36.440Z,9.15
2022-11-24T01:55:06.184Z,6.72
2022-11-24T01:57:34.632Z,9.98
2022-11-24T02:00:05.999Z,6.95
2022-11-24T02:02:32.502Z,12.10
2022-11-24T02:05:00.514Z,11.95
2022-11-24T02:07:27.049Z,8.15
2022-11-24T02:09:58.572Z,8.88
2022-11-24T02:12:26.446Z,10.88
2022-11-24T02:14:53.835Z,11.07
2022-11-24T02:17:20.116Z,7.28
2022-11-24T02:19:52.920Z,9.30
2022-11-24T02:22:19.240Z,9.95
2022-11-24T02:25:00.896Z,10.75
2022-11-24T02:27:27.175Z,13.35
2022-11-24T02:29:53.477Z,10.25
2022-11-24T02:32:20.252Z,12.40
2022-11-24T02:34:46.538Z,13.10
2022-11-24T02:37:12.794Z,10.55
2022-11-24T02:39:39.064Z,13.40
2022-11-24T02:42:08.666Z,10.90
2022-11-24T02:44:37.874Z,22.15
2022-11-24T02:47:08.801Z,9.75
2022-11-24T02:49:35.329Z,13.90
2022-11-24T02:52:01.915Z,18.05
2022-11-24T02:54:28.403Z,15.93
2022-11-24T02:56:54.725Z,16.88
2022-11-24T02:59:21.120Z,17.52
2022-11-24T03:01:47.435Z,14.73
2022-11-24T03:04:13.792Z,21.83
2022-11-24T03:06:40.170Z,16.20
2022-11-24T03:09:06.624Z,17.17
2022-11-24T03:11:33.116Z,23.92
2022-11-24T03:13:59.446Z,17.33
2022-11-24T03:16:25.787Z,9.63
2022-11-24T03:18:52.391Z,15.90
2022-11-24T03:21:18.819Z,11.52
2022-11-24T03:23:45.408Z,12.88
2022-11-24T03:26:16.257Z,12.95
2022-11-24T03:28:42.536Z,9.48
2022-11-24T03:31:09.457Z,15.88
2022-11-24T03:33:36.377Z,14.00
2022-11-24T03:36:03.240Z,17.45
2022-11-24T03:38:29.580Z,16.80
2022-11-24T03:40:55.866Z,11.27
2022-11-24T03:43:22.154Z,13.75
2022-11-24T03:45:48.981Z,13.93
2022-11-24T03:48:16.528Z,19.08
2022-11-24T03:50:43.164Z,18.17
2022-11-24T03:53:09.456Z,13.27
2022-11-24T03:55:36.048Z,17.45
2022-11-24T03:58:02.346Z,10.45
2022-11-24T04:00:28.737Z,18.80
2022-11-24T04:02:55.043Z,14.95
2022-11-24T04:05:21.462Z,16.08
2022-11-24T04:07:47.765Z,18.92
2022-11-24T04:10:14.097Z,19.75
2022-11-24T04:12:46.114Z,23.80
2022-11-24T04:15:13.701Z,13.05
2022-11-24T04:17:40.262Z,18.95
2022-11-24T04:20:06.910Z,19.05
2022-11-24T04:22:33.218Z,16.50
2022-11-24T04:24:59.576Z,12.60
2022-11-24T04:27:25.842Z,19.98
2022-11-24T04:29:52.559Z,21.27
2022-11-24T04:32:18.937Z,15.50
2022-11-24T04:34:45.220Z,10.70
2022-11-24T04:37:11.500Z,11.65
2022-11-24T04:39:37.789Z,18.45
2022-11-24T04:42:04.101Z,24.05
2022-11-24T04:44:30.383Z,13.15
2022-11-24T04:46:56.782Z,16.67
2022-11-24T04:49:23.078Z,16.02
2022-11-24T04:51:49.503Z,19.73
2022-11-24T04:54:15.992Z,19.75
2022-11-24T04:56:42.632Z,17.25
2022-11-24T04:59:11.731Z,19.98
2022-11-24T05:01:38.038Z,22.63
2022-11-24T05:04:04.443Z,15.45
2022-11-24T05:06:30.765Z,19.50
2022-11-24T05:08:57.048Z,19.13
2022-11-24T05:11:23.337Z,19.63
2022-11-24T05:13:49.616Z,11.68
2022-11-24T05:16:16.034Z,15.13
2022-11-24T05:18:42.429Z,11.40
2022-11-24T05:21:08.752Z,18.42
2022-11-24T05:23:35.491Z,14.75
2022-11-24T05:26:01.827Z,21.20
2022-11-24T05:28:28.136Z,14.25
2022-11-24T05:30:54.832Z,18.83
2022-11-24T05:33:22.921Z,21.70
2022-11-24T05:35:49.711Z,15.77
2022-11-24T05:38:16.979Z,17.98
2022-11-24T05:40:43.639Z,18.58
2022-11-24T05:43:13.118Z,17.95
2022-11-24T05:45:39.609Z,8.47
2022-11-24T05:48:07.304Z,23.83
2022-11-24T05:50:33.855Z,23.50
2022-11-24T05:53:07.546Z,16.48
2022-11-24T05:55:34.545Z,21.77
2022-11-24T05:58:01.866Z,22.33
2022-11-24T06:00:28.913Z,17.25
2022-11-24T06:02:56.565Z,15.90
2022-11-24T06:05:23.098Z,21.40
2022-11-24T06:07:49.557Z,24.58
2022-11-24T06:10:19.825Z,17.23
2022-11-24T06:12:46.491Z,14.55
2022-11-24T06:15:13.205Z,26.88
2022-11-24T06:17:39.920Z,30.23
2022-11-24T06:20:06.946Z,27.35
2022-11-24T06:22:33.494Z,26.35
2022-11-24T06:24:59.905Z,14.40
2022-11-24T06:27:26.448Z,11.00
2022-11-24T06:29:52.800Z,18.42
2022-11-24T06:32:19.151Z,23.38
2022-11-24T06:34:45.778Z,21.75
2022-11-24T06:37:12.108Z,19.23
2022-11-24T06:39:38.413Z,25.90
2022-11-24T06:42:04.833Z,29.38
2022-11-24T06:44:31.348Z,16.90
2022-11-24T06:46:57.868Z,13.27
2022-11-24T06:49:24.220Z,24.20
2022-11-24T06:51:50.553Z,27.65
2022-11-24T06:54:18.098Z,21.45
2022-11-24T06:56:44.457Z,30.77
2022-11-24T06:59:16.236Z,20.80
2022-11-24T07:01:42.533Z,25.67
2022-11-24T07:04:08.914Z,15.15
2022-11-24T07:06:35.302Z,22.98
2022-11-24T07:09:01.648Z,25.08
2022-11-24T07:11:27.975Z,16.60
2022-11-24T07:13:59.622Z,27.33
2022-11-24T07:16:26.940Z,21.63
2022-11-24T07:18:53.877Z,28.65
2022-11-24T07:21:20.941Z,34.10
2022-11-24T07:23:50.685Z,23.35
2022-11-24T07:26:17.156Z,25.98
2022-11-24T07:28:43.761Z,31.45
2022-11-24T07:31:11.314Z,22.45
2022-11-24T07:33:37.881Z,21.92
2022-11-24T07:36:05.148Z,31.38
2022-11-24T07:38:31.706Z,26.70
2022-11-24T07:40:59.769Z,18.05
2022-11-24T07:43:26.041Z,16.52
2022-11-24T07:45:52.675Z,30.98
2022-11-24T07:48:19.020Z,22.40
2022-11-24T07:50:45.401Z,19.38
2022-11-24T07:53:11.681Z,16.63
2022-11-24T07:55:37.965Z,11.80
2022-11-24T07:58:04.237Z,23.58
2022-11-24T08:00:30.610Z,21.33
2022-11-24T08:02:56.920Z,17.30
2022-11-24T08:05:23.205Z,29.55
2022-11-24T08:07:49.529Z,20.92
2022-11-24T08:10:16.094Z,17.17
2022-11-24T08:12:43.857Z,19.67
2022-11-24T08:15:11.314Z,17.10
2022-11-24T08:17:37.893Z,7.03
2022-11-24T08:20:04.374Z,19.17
2022-11-24T08:22:30.664Z,13.93
2022-11-24T08:24:56.962Z,16.05
2022-11-24T08:27:23.309Z,16.25
2022-11-24T08:29:49.791Z,12.70
2022-11-24T08:32:20.585Z,15.45
2022-11-24T08:34:48.427Z,14.25
2022-11-24T08:37:14.952Z,11.43
2022-11-24T08:39:41.229Z,7.25
2022-11-24T08:42:07.625Z,20.70
2022-11-24T08:44:34.193Z,19.83
2022-11-24T08:47:00.741Z,17.13
2022-11-24T08:49:27.159Z,9.77
2022-11-24T08:51:53.485Z,15.50
2022-11-24T08:54:20.384Z,13.95
2022-11-24T08:56:48.935Z,19.10
2022-11-24T08:59:15.259Z,19.98
2022-11-24T09:01:42.290Z,17.90
2022-11-24T09:04:08.873Z,21.42
2022-11-24T09:06:35.233Z,16.48
2022-11-24T09:09:01.721Z,18.50
2022-11-24T09:11:28.472Z,16.95
2022-11-24T09:13:55.179Z,14.63
2022-11-24T09:16:22.749Z,19.05
2022-11-24T09:18:54.459Z,11.68
2022-11-24T09:21:21.293Z,24.17
2022-11-24T09:23:51.053Z,18.58
2022-11-24T09:26:36.913Z,15.00
2022-11-24T09:29:04.207Z,14.75
2022-11-24T09:31:31.663Z,24.30
2022-11-24T09:33:58.034Z,20.67
2022-11-24T09:36:24.743Z,16.20
2022-11-24T09:38:51.129Z,17.83
2022-11-24T09:41:17.428Z,14.68
2022-11-24T09:43:43.678Z,29.20
2022-11-24T09:46:23.197Z,11.73
2022-11-24T09:48:52.828Z,13.90
2022-11-24T09:51:22.052Z,12.27
2022-11-24T09:53:53.934Z,22.67
2022-11-24T09:56:21.552Z,15.35
2022-11-24T09:58:59.305Z,12.38
2022-11-24T10:01:30.446Z,19.15
2022-11-24T10:04:01.089Z,17.83
2022-11-24T10:06:35.756Z,14.93
2022-11-24T10:09:20.152Z,15.60
2022-11-24T10:12:05.348Z,14.18
2022-11-24T10:14:31.614Z,8.40
2022-11-24T10:17:05.946Z,17.38
2022-11-24T10:19:43.795Z,11.88
2022-11-24T10:22:19.657Z,15.75
2022-11-24T10:24:45.942Z,14.80
2022-11-24T10:27:19.449Z,9.45
2022-11-24T10:29:49.846Z,10.93
2022-11-24T10:34:46.542Z,12.77
2022-11-24T10:39:39.333Z,16.17
2022-11-24T10:42:26.866Z,21.38
2022-11-24T10:45:15.950Z,11.13
2022-11-24T10:47:42.729Z,14.85
2022-11-24T10:50:21.342Z,10.73
2022-11-24T10:52:50.717Z,18.77
2022-11-24T10:55:17.082Z,6.97
2022-11-24T10:57:45.097Z,11.57
2022-11-24T11:00:14.610Z,12.32
2022-11-24T11:02:40.974Z,16.20
2022-11-24T11:05:26.253Z,13.25
2022-11-24T11:08:11.428Z,4.28
2022-11-24T11:10:37.748Z,11.07
2022-11-24T11:13:23.356Z,10.82
2022-11-24T11:15:49.731Z,5.95
2022-11-24T11:18:17.473Z,8.63
2022-11-24T11:20:54.323Z,8.80
2022-11-24T11:23:26.741Z,10.50
2022-11-24T11:26:13.054Z,7.88
2022-11-24T11:28:39.354Z,20.23
2022-11-24T11:31:19.965Z,9.70
2022-11-24T11:34:04.682Z,11.18
2022-11-24T11:36:32.932Z,6.75
2022-11-24T11:38:59.345Z,21.02
2022-11-24T11:41:28.270Z,10.38
2022-11-24T11:44:01.954Z,12.57
2022-11-24T11:46:30.992Z,6.88
2022-11-24T11:48:57.377Z,7.85
2022-11-24T11:51:33.818Z,11.95
2022-11-24T11:54:25.764Z,9.27
2022-11-24T11:57:02.641Z,15.52
2022-11-24T11:59:41.818Z,12.35
2022-11-24T12:02:26.651Z,14.07
2022-11-24T12:04:55.297Z,8.13
2022-11-24T12:07:27.876Z,12.15
2022-11-24T12:10:09.706Z,8.70
2022-11-24T12:12:39.041Z,10.20
2022-11-24T12:15:17.954Z,9.13
2022-11-24T12:17:47.165Z,6.93
2022-11-24T12:20:17.263Z,11.32
2022-11-24T12:22:46.397Z,8.45
2022-11-24T12:25:12.646Z,8.52
2022-11-24T12:27:42.034Z,8.80
2022-11-24T12:30:18.350Z,4.83
2022-11-24T12:32:44.888Z,6.10
2022-11-24T12:35:17.813Z,5.93
2022-11-24T12:38:02.446Z,18.95
2022-11-24T12:40:34.766Z,11.23
2022-11-24T12:43:10.440Z,6.45
2022-11-24T12:45:48.616Z,6.15
2022-11-24T12:48:32.609Z,13.25
2022-11-24T12:50:59.545Z,10.82
2022-11-24T12:53:30.830Z,7.63
2022-11-24T12:55:59.844Z,5.63
2022-11-24T12:58:32.740Z,8.10
2022-11-24T13:01:16.938Z,8.05
2022-11-24T13:03:56.596Z,6.38
2022-11-24T13:06:38.136Z,6.63
2022-11-24T13:09:14.059Z,13.25
2022-11-24T13:11:50.802Z,14.02
2022-11-24T13:14:17.158Z,6.30
2022-11-24T13:19:38.724Z,3.78
2022-11-24T13:22:08.015Z,5.50
2022-11-24T13:24:38.353Z,7.88
2022-11-24T13:27:13.976Z,9.80
2022-11-24T13:29:41.028Z,8.35
2022-11-24T13:32:07.293Z,6.28
2022-11-24T13:34:42.839Z,4.07
2022-11-24T13:37:26.618Z,8.95
2022-11-24T13:40:04.877Z,9.50
2022-11-24T13:42:43.971Z,6.78
2022-11-24T13:45:30.668Z,5.53
2022-11-24T13:47:56.949Z,3.95
2022-11-24T13:50:25.030Z,4.10
2022-11-24T13:52:58.161Z,2.35
2022-11-24T13:55:29.758Z,3.50
2022-11-24T13:57:58.415Z,4.57
2022-11-24T14:00:27.827Z,3.55
2022-11-24T14:03:17.527Z,9.90
2022-11-24T14:05:51.173Z,2.42
2022-11-24T14:08:20.175Z,7.30
2022-11-24T14:10:46.542Z,5.88
2022-11-24T14:13:16.761Z,2.50
2022-11-24T14:18:21.919Z,2.17
2022-11-24T14:20:48.324Z,3.67
2022-11-24T14:23:14.632Z,4.75
2022-11-24T14:25:46.759Z,7.88
2022-11-24T14:28:24.448Z,5.72
2022-11-24T14:30:51.401Z,3.50
2022-11-24T14:33:19.516Z,3.40
2022-11-24T14:35:46.873Z,3.55
2022-11-24T14:38:13.409Z,8.80
2022-11-24T14:40:50.272Z,4.65
2022-11-24T14:43:21.765Z,4.78
2022-11-24T14:45:49.224Z,6.13
2022-11-24T14:48:16.382Z,5.03
2022-11-24T14:50:42.802Z,3.47
2022-11-24T14:53:13.437Z,3.97
2022-11-24T14:55:40.212Z,6.40
2022-11-24T14:58:20.465Z,3.35
2022-11-24T15:01:06.927Z,5.78
2022-11-24T15:03:33.296Z,1.75
2022-11-24T15:06:00.900Z,3.53
2022-11-24T15:08:28.619Z,5.72
2022-11-24T15:10:58.975Z,4.55
2022-11-24T15:15:57.558Z,3.15
2022-11-24T15:18:32.036Z,2.28
2022-11-24T15:20:58.320Z,3.97
2022-11-24T15:23:24.614Z,3.47
2022-11-24T15:25:57.616Z,5.30
2022-11-24T15:28:27.247Z,5.43
2022-11-24T15:30:54.642Z,3.63
2022-11-24T15:33:21.605Z,4.78
2022-11-24T15:35:48.010Z,7.50
2022-11-24T15:38:14.835Z,3.95
2022-11-24T15:40:42.364Z,5.25
2022-11-24T15:43:17.695Z,5.88
2022-11-24T15:45:43.956Z,6.28
2022-11-24T15:48:13.543Z,6.43
2022-11-24T15:50:42.679Z,8.30
2022-11-24T15:53:15.996Z,4.75
2022-11-24T15:55:42.343Z,3.78
2022-11-24T15:58:11.408Z,8.70
2022-11-24T16:00:37.772Z,4.70
2022-11-24T16:03:24.015Z,3.33
2022-11-24T16:05:52.076Z,7.20
2022-11-24T16:08:18.469Z,6.85
2022-11-24T16:10:44.892Z,3.88
2022-11-24T16:13:11.540Z,5.65
2022-11-24T16:15:38.023Z,9.07
2022-11-24T16:18:05.270Z,4.25
2022-11-24T16:20:32.436Z,5.63
2022-11-24T16:22:58.783Z,9.00
2022-11-24T16:25:25.036Z,9.05
2022-11-24T16:27:51.328Z,7.95
2022-11-24T16:30:17.693Z,7.45
2022-11-24T16:32:43.978Z,6.28
2022-11-24T16:35:10.334Z,8.77
2022-11-24T16:37:36.685Z,8.43
2022-11-24T16:40:03.377Z,9.90
2022-11-24T16:42:29.658Z,7.75
2022-11-24T16:44:55.935Z,10.05
2022-11-24T16:47:22.212Z,5.55
2022-11-24T16:49:49.048Z,10.70
2022-11-24T16:52:16.104Z,10.10
2022-11-24T16:54:42.519Z,17.00
2022-11-24T16:57:15.027Z,16.63
2022-11-24T16:59:43.279Z,11.35
2022-11-24T17:02:12.029Z,10.23
2022-11-24T17:04:38.360Z,10.13
2022-11-24T17:07:04.618Z,13.25
2022-11-24T17:09:31.680Z,12.05
2022-11-24T17:12:00.170Z,9.52
2022-11-24T17:14:26.542Z,11.85
2022-11-24T17:16:52.909Z,14.10
2022-11-24T17:19:19.235Z,8.50
2022-11-24T17:21:45.540Z,9.63
2022-11-24T17:24:17.345Z,10.60
2022-11-24T17:26:48.766Z,6.15
2022-11-24T17:29:15.456Z,10.40
2022-11-24T17:31:41.870Z,8.40
2022-11-24T17:34:10.282Z,8.95
2022-11-24T17:36:36.616Z,6.32
2022-11-24T17:39:04.519Z,8.90
2022-11-24T17:41:31.380Z,6.30
2022-11-24T17:43:58.145Z,10.80
2022-11-24T17:46:28.333Z,13.00
2022-11-24T17:48:55.055Z,7.05
2022-11-24T17:51:22.349Z,7.20
2022-11-24T17:53:49.563Z,9.52
2022-11-24T17:56:19.907Z,10.52
2022-11-24T18:01:12.984Z,10.38
2022-11-24T18:03:39.866Z,7.53
2022-11-24T18:06:06.825Z,7.70
2022-11-24T18:08:33.894Z,10.60
2022-11-24T18:11:10.256Z,9.43
2022-11-24T18:16:24.399Z,7.18
2022-11-24T18:19:05.060Z,8.77
2022-11-24T18:21:33.901Z,11.07
2022-11-24T18:24:00.185Z,11.07
2022-11-24T18:26:26.461Z,12.02
2022-11-24T18:28:53.001Z,11.70
2022-11-24T18:31:20.595Z,10.70
2022-11-24T18:33:46.874Z,10.93
2022-11-24T18:36:15.213Z,19.88
2022-11-24T18:38:41.706Z,18.85
2022-11-24T18:41:08.220Z,14.18
2022-11-24T18:43:35.990Z,16.30
2022-11-24T18:46:06.388Z,21.25
2022-11-24T18:50:59.066Z,19.50
2022-11-24T18:53:25.764Z,17.33
2022-11-24T18:55:55.096Z,14.32
2022-11-24T18:58:21.371Z,17.00
2022-11-24T19:00:47.727Z,11.88
2022-11-24T19:03:14.102Z,14.98
2022-11-24T19:05:41.144Z,11.25
2022-11-24T19:08:07.592Z,16.02
2022-11-24T19:10:37.793Z,16.60
2022-11-24T19:13:04.637Z,12.82
2022-11-24T19:15:34.448Z,16.92
2022-11-24T19:18:01.081Z,18.88
2022-11-24T19:20:27.420Z,18.17
2022-11-24T19:22:53.827Z,17.13
2022-11-24T19:25:20.172Z,24.05
2022-11-24T19:27:46.448Z,25.95
2022-11-24T19:30:12.860Z,18.08
2022-11-24T19:32:39.122Z,16.38
2022-11-24T19:35:05.609Z,19.35
2022-11-24T19:37:31.973Z,18.88
2022-11-24T19:39:58.310Z,20.65
2022-11-24T19:42:24.577Z,22.90
2022-11-24T19:44:56.219Z,16.13
2022-11-24T19:47:23.070Z,16.17
2022-11-24T19:49:49.363Z,21.73
2022-11-24T19:52:15.696Z,23.20
2022-11-24T19:54:42.032Z,19.05
2022-11-24T19:57:08.317Z,22.30
2022-11-24T19:59:34.598Z,16.88
2022-11-24T20:02:02.558Z,26.65
2022-11-24T20:04:29.508Z,23.25
2022-11-24T20:06:55.768Z,12.30
2022-11-24T20:09:22.050Z,19.88
2022-11-24T20:11:49.012Z,14.88
2022-11-24T20:14:17.384Z,14.88
2022-11-24T20:16:45.418Z,20.45
2022-11-24T20:19:12.992Z,13.80
2022-11-24T20:21:39.828Z,25.65
2022-11-24T20:24:13.626Z,22.00
2022-11-24T20:26:42.053Z,16.98
2022-11-24T20:29:11.981Z,13.68
2022-11-24T20:31:58.577Z,18.50
2022-11-24T20:34:26.253Z,19.80
2022-11-24T20:36:53.018Z,26.60
2022-11-24T20:39:21.106Z,21.80
2022-11-24T20:41:47.415Z,19.27
2022-11-24T20:44:15.245Z,19.60
2022-11-24T20:46:42.114Z,17.40
2022-11-24T20:49:10.296Z,16.80
2022-11-24T20:51:38.965Z,17.30
2022-11-24T20:54:06.568Z,19.17
2022-11-24T20:56:34.229Z,21.80
2022-11-24T20:59:00.869Z,19.63
2022-11-24T21:01:34.651Z,20.88
2022-11-24T21:04:01.789Z,22.98
2022-11-24T21:06:28.304Z,20.67
2022-11-24T21:08:58.967Z,13.57
2022-11-24T21:11:29.197Z,17.90
2022-11-24T21:13:55.863Z,13.98
2022-11-24T21:16:26.482Z,18.23
2022-11-24T21:18:57.292Z,17.38
2022-11-24T21:21:24.579Z,25.42
2022-11-24T21:23:51.226Z,15.80
2022-11-24T21:26:18.357Z,18.63
2022-11-24T21:28:45.591Z,18.92
2022-11-24T21:31:13.027Z,17.20
2022-11-24T21:33:40.105Z,18.52
2022-11-24T21:36:06.653Z,25.08
2022-11-24T21:38:32.957Z,22.70
2022-11-24T21:41:00.373Z,24.33
2022-11-24T21:43:27.931Z,24.92
2022-11-24T21:45:54.585Z,14.02
2022-11-24T21:48:20.944Z,16.52
2022-11-24T21:50:47.263Z,23.88
2022-11-24T21:53:13.762Z,14.75
2022-11-24T21:55:40.130Z,12.20
2022-11-24T21:58:06.488Z,20.77
2022-11-24T22:00:32.897Z,9.98
2022-11-24T22:02:59.153Z,16.98
2022-11-24T22:05:25.427Z,9.55
2022-11-24T22:07:51.739Z,10.65
2022-11-24T22:10:18.142Z,12.07
2022-11-24T22:12:44.427Z,12.57
2022-11-24T22:15:10.854Z,18.30
2022-11-24T22:17:37.201Z,21.88
2022-11-24T22:20:03.772Z,23.77
2022-11-24T22:22:30.056Z,14.77
2022-11-24T22:24:56.389Z,19.73
2022-11-24T22:27:22.779Z,21.73
2022-11-24T22:29:54.012Z,22.13
2022-11-24T22:32:20.569Z,32.40
2022-11-24T22:34:46.846Z,12.85
2022-11-24T22:37:13.233Z,20.63
2022-11-24T22:39:39.498Z,16.27
2022-11-24T22:42:05.799Z,25.08
2022-11-24T22:44:32.047Z,21.70
2022-11-24T22:46:59.890Z,20.70
2022-11-24T22:49:26.191Z,23.70
2022-11-24T22:51:52.476Z,24.75
2022-11-24T22:54:18.822Z,22.67
2022-11-24T22:56:45.221Z,20.55
2022-11-24T22:59:11.489Z,18.80
2022-11-24T23:01:37.787Z,17.92
2022-11-24T23:04:04.332Z,13.15
2022-11-24T23:06:31.395Z,15.27
2022-11-24T23:08:58.887Z,12.98
2022-11-24T23:11:32.584Z,13.63
2022-11-24T23:14:00.497Z,41.55
2022-11-24T23:16:27.385Z,32.78
2022-11-24T23:18:54.208Z,18.92
2022-11-24T23:21:24.767Z,17.50
2022-11-24T23:26:19.012Z,12.45
2022-11-24T23:28:45.320Z,14.57
2022-11-24T23:31:12.808Z,16.17
2022-11-24T23:33:39.194Z,12.52
2022-11-24T23:36:06.883Z,13.07
2022-11-24T23:38:33.311Z,12.45
2022-11-24T23:41:00.716Z,16.75
2022-11-24T23:43:27.276Z,16.85
2022-11-24T23:45:53.668Z,14.63
2022-11-24T23:48:20.009Z,19.73
2022-11-24T23:50:46.291Z,17.55
2022-11-24T23:53:12.914Z,23.65
2022-11-24T23:55:39.208Z,16.45
2022-11-24T23:58:05.755Z,10.60
